createdAt,value
2017-09-30T00:00:34.213Z,99.84
2017-09-30T00:01:44.482Z,99.99
2017-09-30T00:02:56.532Z,99.99
2017-09-30T00:04:06.482Z,99.99
2017-09-30T00:05:16.429Z,99.99
2017-09-30T00:06:26.704Z,99.99
2017-09-30T00:07:36.653Z,99.99
2017-09-30T00:08:46.928Z,99.99
2017-09-30T00:09:56.878Z,99.99
2017-09-30T00:11:06.829Z,99.99
2017-09-30T00:12:17.101Z,99.99
2017-09-30T00:13:27.375Z,99.99
2017-09-30T00:14:37.646Z,99.99
2017-09-30T00:15:47.919Z,99.99
2017-09-30T00:16:58.187Z,99.99
2017-09-30T00:18:08.461Z,99.99
2017-09-30T00:19:18.411Z,99.99
2017-09-30T00:20:28.685Z,99.99
2017-09-30T00:21:38.951Z,99.99
2017-09-30T00:22:48.586Z,99.99
2017-09-30T00:23:58.867Z,99.99
2017-09-30T00:25:08.823Z,99.99
2017-09-30T00:26:18.451Z,99.99
2017-09-30T00:27:28.402Z,99.99
2017-09-30T00:28:38.678Z,99.99
2017-09-30T00:29:48.954Z,99.99
2017-09-30T00:30:59.222Z,99.99
2017-09-30T00:32:08.848Z,99.99
2017-09-30T00:33:19.129Z,99.99
2017-09-30T00:34:29.403Z,99.99
2017-09-30T00:35:39.679Z,99.99
2017-09-30T00:36:49.627Z,99.99
2017-09-30T00:37:59.897Z,99.99
2017-09-30T00:39:09.847Z,99.99
2017-09-30T00:40:20.134Z,99.99
2017-09-30T00:41:30.086Z,99.99
2017-09-30T00:42:40.030Z,99.99
2017-09-30T00:43:50.305Z,99.99
2017-09-30T00:45:00.265Z,99.99
2017-09-30T00:46:10.229Z,99.99
2017-09-30T00:47:20.502Z,99.99
2017-09-30T00:48:30.773Z,99.99
2017-09-30T00:49:41.043Z,99.99
2017-09-30T00:50:51.322Z,99.99
2017-09-30T00:52:01.608Z,99.99
2017-09-30T00:53:11.241Z,99.99
2017-09-30T00:54:21.194Z,99.99
2017-09-30T00:55:31.463Z,99.99
2017-09-30T00:56:41.736Z,99.99
2017-09-30T00:57:51.682Z,99.99
2017-09-30T00:59:01.634Z,99.99
2017-09-30T01:00:11.903Z,99.99
2017-09-30T01:01:22.176Z,99.99
2017-09-30T01:02:31.809Z,99.99
2017-09-30T01:03:41.754Z,99.99
2017-09-30T01:04:52.029Z,99.99
2017-09-30T01:06:02.307Z,99.99
2017-09-30T01:07:12.599Z,99.99
2017-09-30T01:08:22.894Z,99.99
2017-09-30T01:09:32.844Z,99.99
2017-09-30T01:10:43.119Z,99.99
2017-09-30T01:11:53.071Z,99.99
2017-09-30T01:13:03.023Z,99.99
2017-09-30T01:14:13.295Z,99.99
2017-09-30T01:15:23.579Z,99.99
2017-09-30T01:16:33.531Z,99.99
2017-09-30T01:17:43.805Z,99.99
2017-09-30T01:18:54.074Z,99.99
2017-09-30T01:20:04.024Z,99.99
2017-09-30T01:21:14.294Z,99.99
2017-09-30T01:22:24.246Z,99.99
2017-09-30T01:23:33.874Z,99.99
2017-09-30T01:24:44.143Z,99.99
2017-09-30T01:25:54.412Z,99.99
2017-09-30T01:27:04.681Z,99.99
2017-09-30T01:28:14.956Z,99.99
2017-09-30T01:29:25.230Z,99.99
2017-09-30T01:30:35.502Z,99.99
2017-09-30T01:31:45.770Z,99.99
2017-09-30T01:32:56.038Z,99.99
2017-09-30T01:34:06.316Z,99.99
2017-09-30T01:35:16.584Z,99.99
2017-09-30T01:36:26.575Z,99.99
2017-09-30T01:37:36.531Z,99.99
2017-09-30T01:38:46.479Z,99.99
2017-09-30T01:39:56.752Z,99.99
2017-09-30T01:41:07.026Z,99.99
2017-09-30T01:42:16.972Z,99.99
2017-09-30T01:43:26.600Z,99.99
2017-09-30T01:44:36.881Z,99.99
2017-09-30T01:45:46.832Z,99.99
2017-09-30T01:46:57.106Z,99.99
2017-09-30T01:48:07.092Z,99.99
2017-09-30T01:49:17.362Z,99.99
2017-09-30T01:50:26.987Z,99.99
2017-09-30T01:51:37.309Z,99.99
2017-09-30T01:52:47.584Z,99.99
2017-09-30T01:53:57.859Z,99.99
2017-09-30T01:55:08.132Z,99.99
2017-09-30T01:56:18.412Z,99.99
2017-09-30T01:57:28.362Z,99.99
2017-09-30T01:58:37.993Z,99.99
2017-09-30T01:59:47.624Z,99.99
2017-09-30T02:00:57.892Z,99.99
2017-09-30T02:02:08.158Z,99.99
2017-09-30T02:03:18.121Z,99.99
2017-09-30T02:04:28.400Z,99.99
2017-09-30T02:05:38.664Z,99.99
2017-09-30T02:06:48.946Z,99.99
2017-09-30T02:07:59.220Z,99.99
2017-09-30T02:09:09.496Z,99.99
2017-09-30T02:10:19.443Z,99.99
2017-09-30T02:11:29.067Z,99.99
2017-09-30T02:12:38.700Z,99.99
2017-09-30T02:13:49.006Z,99.99
2017-09-30T02:14:58.985Z,99.99
2017-09-30T02:16:08.945Z,99.99
2017-09-30T02:17:19.219Z,99.99
2017-09-30T02:18:29.280Z,99.99
2017-09-30T02:19:39.554Z,99.99
2017-09-30T02:20:49.836Z,99.99
2017-09-30T02:22:00.108Z,99.99
2017-09-30T02:23:10.376Z,99.99
2017-09-30T02:24:20.645Z,99.99
2017-09-30T02:25:30.599Z,99.99
2017-09-30T02:26:40.547Z,99.99
2017-09-30T02:27:50.492Z,99.99
2017-09-30T02:29:00.801Z,99.99
2017-09-30T02:30:10.435Z,99.99
2017-09-30T02:31:20.710Z,99.99
2017-09-30T02:32:30.984Z,99.99
2017-09-30T02:33:41.251Z,99.99
2017-09-30T02:34:50.876Z,99.99
2017-09-30T02:36:00.824Z,99.99
2017-09-30T02:37:10.460Z,99.99
2017-09-30T02:38:20.416Z,99.99
2017-09-30T02:39:30.691Z,99.99
2017-09-30T02:40:40.978Z,99.99
2017-09-30T02:41:51.251Z,99.99
2017-09-30T02:43:01.212Z,99.99
2017-09-30T02:44:11.491Z,99.99
2017-09-30T02:45:21.455Z,99.99
2017-09-30T02:46:31.728Z,99.99
2017-09-30T02:47:42.001Z,99.99
2017-09-30T02:48:52.270Z,99.99
2017-09-30T02:50:02.550Z,99.99
2017-09-30T02:51:12.501Z,99.99
2017-09-30T02:52:22.778Z,99.99
2017-09-30T02:53:33.060Z,99.99
2017-09-30T02:54:43.331Z,99.99
2017-09-30T02:55:53.609Z,99.99
2017-09-30T02:57:03.880Z,99.99
2017-09-30T02:58:14.154Z,99.99
2017-09-30T02:59:24.424Z,99.99
2017-09-30T03:00:34.372Z,99.99
2017-09-30T03:01:44.647Z,99.99
2017-09-30T03:02:54.601Z,99.99
2017-09-30T03:04:04.875Z,99.99
2017-09-30T03:05:15.155Z,99.99
2017-09-30T03:06:25.433Z,99.99
2017-09-30T03:07:35.717Z,99.99
2017-09-30T03:08:45.670Z,99.99
2017-09-30T03:09:55.617Z,99.99
2017-09-30T03:11:05.890Z,99.99
2017-09-30T03:12:16.162Z,99.99
2017-09-30T03:13:26.434Z,99.99
2017-09-30T03:14:36.382Z,99.99
2017-09-30T03:15:46.328Z,99.99
2017-09-30T03:16:56.604Z,99.99
2017-09-30T03:18:06.553Z,99.99
2017-09-30T03:19:16.829Z,99.99
2017-09-30T03:20:26.778Z,99.99
2017-09-30T03:21:37.057Z,99.99
2017-09-30T03:22:47.003Z,99.99
2017-09-30T03:23:56.953Z,99.99
2017-09-30T03:25:07.235Z,99.99
2017-09-30T03:26:17.518Z,99.99
2017-09-30T03:27:27.794Z,99.99
2017-09-30T03:28:37.750Z,99.99
2017-09-30T03:29:47.701Z,99.99
2017-09-30T03:30:57.981Z,99.99
2017-09-30T03:32:08.252Z,99.99
2017-09-30T03:33:18.207Z,99.99
2017-09-30T03:34:28.152Z,99.99
2017-09-30T03:35:38.429Z,99.99
2017-09-30T03:36:48.071Z,99.99
2017-09-30T03:37:58.339Z,99.99
2017-09-30T03:39:08.609Z,99.99
2017-09-30T03:40:18.244Z,99.99
2017-09-30T03:41:28.192Z,99.99
2017-09-30T03:42:38.137Z,99.99
2017-09-30T03:43:48.086Z,99.99
2017-09-30T03:44:58.363Z,99.99
2017-09-30T03:46:08.642Z,99.99
2017-09-30T03:47:18.275Z,99.99
2017-09-30T03:48:28.556Z,99.99
2017-09-30T03:49:38.827Z,99.99
2017-09-30T03:50:49.098Z,99.99
2017-09-30T03:51:59.372Z,99.99
2017-09-30T03:53:09.319Z,99.99
2017-09-30T03:54:19.267Z,99.99
2017-09-30T03:55:29.536Z,99.99
2017-09-30T03:56:39.804Z,99.99
2017-09-30T03:57:50.088Z,99.99
2017-09-30T03:59:00.051Z,99.99
2017-09-30T04:00:09.995Z,99.99
2017-09-30T04:01:20.261Z,99.99
2017-09-30T04:02:30.538Z,99.99
2017-09-30T04:03:40.809Z,99.99
2017-09-30T04:04:50.759Z,99.99
2017-09-30T04:06:01.027Z,99.99
2017-09-30T04:07:10.655Z,99.99
2017-09-30T04:08:20.597Z,99.99
2017-09-30T04:09:30.867Z,99.99
2017-09-30T04:10:41.140Z,99.99
2017-09-30T04:11:50.767Z,99.99
2017-09-30T04:13:01.047Z,99.99
2017-09-30T04:14:10.995Z,99.99
2017-09-30T04:15:21.276Z,99.99
2017-09-30T04:16:30.907Z,99.99
2017-09-30T04:17:41.188Z,99.99
2017-09-30T04:18:51.461Z,99.99
2017-09-30T04:20:00.767Z,99.99
2017-09-30T04:21:10.712Z,99.99
2017-09-30T04:22:20.661Z,99.99
2017-09-30T04:23:30.614Z,99.99
2017-09-30T04:24:40.888Z,99.99
2017-09-30T04:25:50.835Z,99.99
2017-09-30T04:27:01.109Z,99.99
2017-09-30T04:28:11.066Z,99.99
2017-09-30T04:29:21.333Z,99.99
2017-09-30T04:30:31.282Z,99.99
2017-09-30T04:31:41.555Z,99.99
2017-09-30T04:32:51.507Z,99.99
2017-09-30T04:34:01.451Z,99.99
2017-09-30T04:35:11.077Z,99.99
2017-09-30T04:36:21.343Z,99.99
2017-09-30T04:37:31.289Z,99.99
2017-09-30T04:38:41.241Z,99.99
2017-09-30T04:39:50.883Z,99.99
2017-09-30T04:41:01.153Z,99.99
2017-09-30T04:42:10.792Z,99.99
2017-09-30T04:43:21.065Z,99.99
2017-09-30T04:44:31.012Z,99.99
2017-09-30T04:45:41.284Z,99.99
2017-09-30T04:46:51.236Z,99.99
2017-09-30T04:48:00.862Z,99.99
2017-09-30T04:49:10.817Z,99.99
2017-09-30T04:50:20.447Z,99.99
2017-09-30T04:51:30.396Z,99.99
2017-09-30T04:52:40.342Z,99.99
2017-09-30T04:53:49.972Z,99.99
2017-09-30T04:55:00.247Z,99.99
2017-09-30T04:56:10.520Z,99.99
2017-09-30T04:57:20.792Z,99.99
2017-09-30T04:58:30.741Z,99.99
2017-09-30T04:59:40.703Z,99.99
2017-09-30T05:00:50.969Z,99.99
2017-09-30T05:02:00.920Z,99.99
2017-09-30T05:03:11.197Z,99.99
2017-09-30T05:04:21.476Z,99.99
2017-09-30T05:05:31.425Z,99.99
2017-09-30T05:06:41.700Z,99.99
2017-09-30T05:07:51.648Z,99.99
2017-09-30T05:09:01.603Z,99.99
2017-09-30T05:10:11.875Z,99.99
2017-09-30T05:11:21.828Z,99.99
2017-09-30T05:12:31.136Z,99.99
2017-09-30T05:13:41.412Z,99.99
2017-09-30T05:14:51.679Z,99.99
2017-09-30T05:16:01.952Z,99.99
2017-09-30T05:17:11.612Z,99.99
2017-09-30T05:18:21.882Z,99.99
2017-09-30T05:19:32.155Z,99.99
2017-09-30T05:20:41.785Z,99.99
2017-09-30T05:21:51.411Z,99.99
2017-09-30T05:23:01.684Z,99.99
2017-09-30T05:24:11.954Z,99.99
2017-09-30T05:25:22.230Z,99.99
2017-09-30T05:26:32.183Z,99.99
2017-09-30T05:27:42.126Z,99.99
2017-09-30T05:28:51.757Z,99.99
2017-09-30T05:30:01.707Z,99.99
2017-09-30T05:31:11.337Z,99.99
2017-09-30T05:32:20.646Z,99.99
2017-09-30T05:33:30.593Z,99.99
2017-09-30T05:34:40.865Z,99.99
2017-09-30T05:35:51.133Z,99.99
2017-09-30T05:37:00.756Z,99.99
2017-09-30T05:38:10.394Z,99.99
2017-09-30T05:39:20.027Z,99.99
2017-09-30T05:40:30.313Z,99.99
2017-09-30T05:41:39.939Z,99.99
2017-09-30T05:42:50.214Z,99.99
2017-09-30T05:44:00.165Z,99.99
2017-09-30T05:45:10.457Z,99.99
2017-09-30T05:46:20.740Z,99.99
2017-09-30T05:47:30.690Z,99.99
2017-09-30T05:48:40.962Z,99.99
2017-09-30T05:49:50.601Z,99.99
2017-09-30T05:51:00.867Z,99.99
2017-09-30T05:52:10.833Z,99.99
2017-09-30T05:53:21.104Z,99.99
2017-09-30T05:54:30.735Z,99.99
2017-09-30T05:55:41.009Z,99.99
2017-09-30T05:56:50.639Z,99.99
2017-09-30T05:58:00.586Z,99.99
2017-09-30T05:59:10.549Z,99.99
2017-09-30T06:00:20.185Z,99.99
2017-09-30T06:01:30.467Z,99.99
2017-09-30T06:02:39.785Z,99.79
2017-09-30T06:03:50.060Z,99.69
2017-09-30T06:04:59.366Z,99.98
2017-09-30T06:06:09.319Z,99.99
2017-09-30T06:07:18.957Z,99.89
2017-09-30T06:08:29.229Z,99.51
2017-09-30T06:09:39.186Z,99.51
2017-09-30T06:10:49.461Z,99.03
2017-09-30T06:11:59.419Z,99.13
2017-09-30T06:13:09.696Z,98.7
2017-09-30T06:14:20.040Z,98.55
2017-09-30T06:15:29.347Z,98.74
2017-09-30T06:16:38.974Z,98.18
2017-09-30T06:17:49.246Z,97.51
2017-09-30T06:18:58.232Z,97.6
2017-09-30T06:20:08.511Z,97.51
2017-09-30T06:21:18.782Z,97.99
2017-09-30T06:22:29.051Z,97.89
2017-09-30T06:23:38.371Z,97.6
2017-09-30T06:24:48.650Z,97.65
2017-09-30T06:25:58.924Z,97.7
2017-09-30T06:27:08.568Z,97.6
2017-09-30T06:28:18.527Z,97.6
2017-09-30T06:29:28.480Z,97.6
2017-09-30T06:30:38.749Z,97.22
2017-09-30T06:31:48.706Z,97.13
2017-09-30T06:32:58.983Z,96.84
2017-09-30T06:34:09.256Z,97.94
2017-09-30T06:35:19.525Z,97.51
2017-09-30T06:36:29.475Z,97.6
2017-09-30T06:37:39.747Z,97.46
2017-09-30T06:38:49.699Z,97.7
2017-09-30T06:39:59.974Z,97.51
2017-09-30T06:41:09.937Z,97.7
2017-09-30T06:42:19.569Z,96.94
2017-09-30T06:43:29.523Z,96.89
2017-09-30T06:44:39.798Z,96.98
2017-09-30T06:45:50.076Z,97.03
2017-09-30T06:47:00.355Z,96.94
2017-09-30T06:48:09.985Z,97.13
2017-09-30T06:49:19.616Z,97.41
2017-09-30T06:50:29.576Z,97.51
2017-09-30T06:51:39.840Z,97.41
2017-09-30T06:52:49.784Z,96.98
2017-09-30T06:54:00.059Z,97.13
2017-09-30T06:55:10.332Z,96.94
2017-09-30T06:56:20.287Z,96.94
2017-09-30T06:57:29.275Z,96.46
2017-09-30T06:58:39.229Z,96.94
2017-09-30T06:59:48.854Z,96.65
2017-09-30T07:00:59.136Z,96.41
2017-09-30T07:02:09.085Z,95.75
2017-09-30T07:03:18.703Z,96.41
2017-09-30T07:04:28.974Z,96.6
2017-09-30T07:05:39.250Z,96.6
2017-09-30T07:06:49.521Z,96.12
2017-09-30T07:07:59.787Z,95.94
2017-09-30T07:09:09.739Z,95.94
2017-09-30T07:10:19.692Z,94.79
2017-09-30T07:11:29.652Z,94.41
2017-09-30T07:12:39.605Z,95.17
2017-09-30T07:13:49.557Z,95.36
2017-09-30T07:14:59.187Z,94.51
2017-09-30T07:16:09.456Z,95.46
2017-09-30T07:17:19.733Z,95.94
2017-09-30T07:18:29.691Z,95.65
2017-09-30T07:19:39.967Z,95.46
2017-09-30T07:20:50.245Z,95.46
2017-09-30T07:22:00.515Z,95.84
2017-09-30T07:23:10.151Z,95.65
2017-09-30T07:24:19.783Z,95.56
2017-09-30T07:25:29.734Z,95.65
2017-09-30T07:26:39.684Z,95.56
2017-09-30T07:27:49.960Z,95.56
2017-09-30T07:28:59.911Z,95.36
2017-09-30T07:30:10.184Z,95.46
2017-09-30T07:31:20.143Z,95.46
2017-09-30T07:32:30.410Z,95.75
2017-09-30T07:33:40.365Z,95.56
2017-09-30T07:34:50.000Z,95.36
2017-09-30T07:35:59.305Z,95.27
2017-09-30T07:37:09.260Z,94.79
2017-09-30T07:38:18.885Z,95.36
2017-09-30T07:39:28.847Z,94.41
2017-09-30T07:40:39.117Z,94.89
2017-09-30T07:41:49.061Z,94.7
2017-09-30T07:42:59.015Z,94.6
2017-09-30T07:44:09.303Z,94.32
2017-09-30T07:45:19.256Z,94.41
2017-09-30T07:46:29.207Z,94.41
2017-09-30T07:47:39.483Z,94.41
2017-09-30T07:48:49.434Z,93.74
2017-09-30T07:49:59.706Z,93.74
2017-09-30T07:51:09.338Z,94.6
2017-09-30T07:52:18.969Z,94.22
2017-09-30T07:53:29.240Z,93.84
2017-09-30T07:54:39.198Z,94.22
2017-09-30T07:55:49.156Z,94.03
2017-09-30T07:56:59.112Z,94.41
2017-09-30T07:58:09.381Z,94.6
2017-09-30T07:59:19.011Z,94.6
2017-09-30T08:00:28.969Z,94.7
2017-09-30T08:01:38.926Z,94.7
2017-09-30T08:02:48.882Z,94.32
2017-09-30T08:03:58.840Z,94.41
2017-09-30T08:05:09.115Z,94.89
2017-09-30T08:06:19.070Z,95.36
2017-09-30T08:07:29.023Z,94.7
2017-09-30T08:08:38.974Z,94.41
2017-09-30T08:09:48.928Z,94.6
2017-09-30T08:10:59.201Z,94.7
2017-09-30T08:12:09.147Z,94.6
2017-09-30T08:13:19.101Z,93.55
2017-09-30T08:14:29.371Z,93.08
2017-09-30T08:15:38.996Z,93.55
2017-09-30T08:16:48.971Z,92.79
2017-09-30T08:17:58.921Z,92.69
2017-09-30T08:19:09.191Z,92.69
2017-09-30T08:20:19.141Z,92.79
2017-09-30T08:21:29.418Z,92.98
2017-09-30T08:22:39.380Z,92.6
2017-09-30T08:23:49.013Z,93.65
2017-09-30T08:24:59.288Z,93.37
2017-09-30T08:26:09.239Z,93.46
2017-09-30T08:27:19.193Z,92.5
2017-09-30T08:28:29.468Z,92.32
2017-09-30T08:29:39.763Z,92.69
2017-09-30T08:30:49.392Z,93.37
2017-09-30T08:31:59.657Z,92.98
2017-09-30T08:33:09.291Z,93.46
2017-09-30T08:34:19.249Z,93.65
2017-09-30T08:35:29.198Z,93.17
2017-09-30T08:36:39.760Z,93.37
2017-09-30T08:37:50.055Z,93.27
2017-09-30T08:39:00.018Z,92.69
2017-09-30T08:40:09.968Z,91.46
2017-09-30T08:41:19.595Z,90.93
2017-09-30T08:42:29.542Z,91.22
2017-09-30T08:43:39.498Z,91.46
2017-09-30T08:44:48.801Z,91.79
2017-09-30T08:45:59.079Z,91.55
2017-09-30T08:47:09.349Z,91.79
2017-09-30T08:48:18.981Z,92.17
2017-09-30T08:49:28.937Z,92.17
2017-09-30T08:50:39.207Z,92.36
2017-09-30T08:51:49.485Z,92.84
2017-09-30T08:52:59.754Z,92.08
2017-09-30T08:54:10.026Z,91.6
2017-09-30T08:55:19.658Z,92.08
2017-09-30T08:56:29.609Z,91.98
2017-09-30T08:57:39.556Z,91.69
2017-09-30T08:58:49.182Z,90.93
2017-09-30T08:59:59.132Z,90.74
2017-09-30T09:01:09.083Z,91.31
2017-09-30T09:02:19.374Z,91.31
2017-09-30T09:03:29.654Z,91.22
2017-09-30T09:04:39.931Z,90.84
2017-09-30T09:05:50.206Z,91.03
2017-09-30T09:07:00.472Z,90.17
2017-09-30T09:08:10.430Z,89.69
2017-09-30T09:09:20.389Z,90.26
2017-09-30T09:10:30.338Z,88.93
2017-09-30T09:11:40.627Z,88.36
2017-09-30T09:12:50.940Z,88.17
2017-09-30T09:14:01.214Z,88.55
2017-09-30T09:15:11.165Z,88.84
2017-09-30T09:16:21.440Z,88.55
2017-09-30T09:17:31.716Z,87.69
2017-09-30T09:18:41.339Z,87.26
2017-09-30T09:19:51.609Z,87.26
2017-09-30T09:21:01.565Z,87.16
2017-09-30T09:22:11.835Z,87.35
2017-09-30T09:23:22.111Z,88.12
2017-09-30T09:24:32.093Z,88.31
2017-09-30T09:25:42.365Z,87.16
2017-09-30T09:26:52.322Z,87.26
2017-09-30T09:28:02.602Z,87.35
2017-09-30T09:29:12.330Z,87.54
2017-09-30T09:30:21.958Z,88.12
2017-09-30T09:31:31.933Z,88.4
2017-09-30T09:32:42.210Z,87.93
2017-09-30T09:33:52.159Z,88.21
2017-09-30T09:35:01.791Z,87.54
2017-09-30T09:36:12.060Z,86.59
2017-09-30T09:37:21.689Z,85.45
2017-09-30T09:38:31.647Z,85.06
2017-09-30T09:39:41.595Z,86.3
2017-09-30T09:40:51.538Z,86.49
2017-09-30T09:42:01.811Z,85.16
2017-09-30T09:43:11.441Z,85.64
2017-09-30T09:44:21.717Z,86.4
2017-09-30T09:45:31.992Z,85.06
2017-09-30T09:46:42.273Z,84.59
2017-09-30T09:47:51.911Z,84.59
2017-09-30T09:49:02.191Z,84.69
2017-09-30T09:50:12.465Z,83.44
2017-09-30T09:51:22.747Z,83.83
2017-09-30T09:52:33.017Z,84.4
2017-09-30T09:53:42.966Z,84.2
2017-09-30T09:54:53.260Z,83.44
2017-09-30T09:56:03.216Z,83.25
2017-09-30T09:57:13.495Z,84.34
2017-09-30T09:58:23.767Z,83.83
2017-09-30T09:59:33.721Z,84.4
2017-09-30T10:00:44.021Z,83.73
2017-09-30T10:01:53.978Z,83.44
2017-09-30T10:03:03.617Z,83.83
2017-09-30T10:04:13.572Z,83.92
2017-09-30T10:05:23.854Z,84.63
2017-09-30T10:06:33.808Z,85.49
2017-09-30T10:07:43.437Z,85.49
2017-09-30T10:08:53.388Z,84.16
2017-09-30T10:10:03.674Z,84.25
2017-09-30T10:11:12.983Z,84.49
2017-09-30T10:12:23.263Z,84.78
2017-09-30T10:13:33.535Z,84.69
2017-09-30T10:14:42.842Z,85.73
2017-09-30T10:15:52.800Z,85.16
2017-09-30T10:17:03.072Z,85.54
2017-09-30T10:18:13.028Z,84.92
2017-09-30T10:19:23.301Z,85.11
2017-09-30T10:20:32.928Z,85.39
2017-09-30T10:21:42.877Z,84.97
2017-09-30T10:22:53.159Z,84.49
2017-09-30T10:24:03.448Z,85.35
2017-09-30T10:25:13.403Z,84.59
2017-09-30T10:26:23.360Z,84.59
2017-09-30T10:27:33.635Z,84.88
2017-09-30T10:28:43.911Z,85.35
2017-09-30T10:29:53.862Z,84.69
2017-09-30T10:31:03.818Z,84.25
2017-09-30T10:32:14.101Z,84.97
2017-09-30T10:33:23.734Z,84.97
2017-09-30T10:34:33.366Z,84.88
2017-09-30T10:35:43.000Z,85.54
2017-09-30T10:36:53.283Z,86.4
2017-09-30T10:38:02.917Z,86.69
2017-09-30T10:39:12.225Z,86.3
2017-09-30T10:40:21.903Z,86.3
2017-09-30T10:41:31.970Z,86.11
2017-09-30T10:42:41.922Z,86.11
2017-09-30T10:43:51.230Z,87.16
2017-09-30T10:45:01.178Z,86.78
2017-09-30T10:46:11.452Z,86.21
2017-09-30T10:47:21.404Z,87.07
2017-09-30T10:48:31.354Z,87.83
2017-09-30T10:49:40.986Z,87.35
2017-09-30T10:50:51.258Z,86.49
2017-09-30T10:52:01.205Z,86.78
2017-09-30T10:53:11.475Z,86.11
2017-09-30T10:54:21.429Z,86.78
2017-09-30T10:55:31.696Z,86.78
2017-09-30T10:56:41.974Z,86.3
2017-09-30T10:57:51.924Z,87.16
2017-09-30T10:59:01.559Z,87.07
2017-09-30T11:00:11.509Z,86.21
2017-09-30T11:01:21.466Z,87.07
2017-09-30T11:02:31.746Z,86.98
2017-09-30T11:03:41.703Z,86.59
2017-09-30T11:04:51.969Z,86.3
2017-09-30T11:06:02.246Z,86.02
2017-09-30T11:07:12.204Z,86.21
2017-09-30T11:08:22.156Z,86.69
2017-09-30T11:09:32.426Z,86.21
2017-09-30T11:10:42.705Z,86.3
2017-09-30T11:11:52.014Z,86.3
2017-09-30T11:13:02.288Z,86.02
2017-09-30T11:14:12.236Z,86.88
2017-09-30T11:15:22.191Z,86.78
2017-09-30T11:16:32.466Z,87.16
2017-09-30T11:17:42.738Z,86.78
2017-09-30T11:18:52.685Z,86.59
2017-09-30T11:20:02.960Z,86.78
2017-09-30T11:21:12.270Z,86.78
2017-09-30T11:22:22.543Z,86.21
2017-09-30T11:23:32.172Z,86.21
2017-09-30T11:24:42.452Z,86.69
2017-09-30T11:25:52.725Z,86.78
2017-09-30T11:27:02.360Z,86.59
2017-09-30T11:28:11.991Z,86.02
2017-09-30T11:29:21.935Z,86.21
2017-09-30T11:30:32.209Z,86.35
2017-09-30T11:31:42.499Z,86.3
2017-09-30T11:32:52.776Z,86.11
2017-09-30T11:34:02.739Z,86.11
2017-09-30T11:35:12.370Z,86.35
2017-09-30T11:36:22.329Z,85.97
2017-09-30T11:37:32.600Z,86.25
2017-09-30T11:38:42.880Z,86.25
2017-09-30T11:39:53.160Z,86.92
2017-09-30T11:41:03.114Z,86.06
2017-09-30T11:42:12.745Z,86.82
2017-09-30T11:43:23.021Z,86.35
2017-09-30T11:44:32.973Z,86.35
2017-09-30T11:45:43.243Z,86.82
2017-09-30T11:46:52.871Z,86.25
2017-09-30T11:48:02.834Z,85.68
2017-09-30T11:49:12.786Z,86.25
2017-09-30T11:50:22.744Z,86.82
2017-09-30T11:51:33.023Z,86.06
2017-09-30T11:52:43.297Z,86.25
2017-09-30T11:53:53.566Z,86.73
2017-09-30T11:55:03.196Z,86.06
2017-09-30T11:56:13.155Z,86.25
2017-09-30T11:57:23.112Z,86.35
2017-09-30T11:58:33.394Z,85.97
2017-09-30T11:59:43.345Z,85.87
2017-09-30T12:00:52.973Z,85.39
2017-09-30T12:02:03.244Z,85.3
2017-09-30T12:03:13.193Z,85.58
2017-09-30T12:04:23.142Z,86.06
2017-09-30T12:05:33.417Z,85.21
2017-09-30T12:06:43.685Z,85.58
2017-09-30T12:07:52.990Z,85.39
2017-09-30T12:09:02.296Z,84.63
2017-09-30T12:10:12.254Z,84.72
2017-09-30T12:11:22.525Z,85.49
2017-09-30T12:12:32.474Z,85.39
2017-09-30T12:13:42.426Z,84.72
2017-09-30T12:14:52.378Z,85.01
2017-09-30T12:16:02.326Z,84.53
2017-09-30T12:17:12.277Z,84.06
2017-09-30T12:18:22.225Z,85.3
2017-09-30T12:19:32.505Z,84.63
2017-09-30T12:20:42.784Z,85.05
2017-09-30T12:21:52.742Z,85.15
2017-09-30T12:23:02.699Z,85.34
2017-09-30T12:24:12.651Z,84.67
2017-09-30T12:25:22.930Z,83.62
2017-09-30T12:26:32.898Z,83.81
2017-09-30T12:27:42.856Z,84.67
2017-09-30T12:28:52.808Z,84.39
2017-09-30T12:30:03.081Z,83.72
2017-09-30T12:31:12.393Z,84.58
2017-09-30T12:32:22.022Z,84.39
2017-09-30T12:33:32.300Z,85.53
2017-09-30T12:34:42.258Z,85.53
2017-09-30T12:35:54.240Z,84.58
2017-09-30T12:37:04.513Z,84.86
2017-09-30T12:38:14.803Z,84.58
2017-09-30T12:39:25.076Z,85.53
2017-09-30T12:40:35.035Z,85.25
2017-09-30T12:41:44.676Z,85.63
2017-09-30T12:42:54.305Z,84.86
2017-09-30T12:44:04.261Z,85.15
2017-09-30T12:45:14.533Z,85.25
2017-09-30T12:46:24.810Z,85.63
2017-09-30T12:47:35.085Z,85.34
2017-09-30T12:48:44.721Z,85.25
2017-09-30T12:49:55.004Z,85.44
2017-09-30T12:51:05.283Z,85.63
2017-09-30T12:52:15.239Z,85.53
2017-09-30T12:53:25.512Z,85.53
2017-09-30T12:54:35.782Z,85.34
2017-09-30T12:55:45.413Z,84.58
2017-09-30T12:56:55.368Z,85.63
2017-09-30T12:58:05.638Z,85.63
2017-09-30T12:59:15.918Z,85.53
2017-09-30T13:00:25.869Z,84.92
2017-09-30T13:01:36.146Z,84.48
2017-09-30T13:02:46.451Z,84.72
2017-09-30T13:03:56.412Z,85.21
2017-09-30T13:05:06.688Z,84.72
2017-09-30T13:06:16.320Z,85.3
2017-09-30T13:07:26.271Z,85.21
2017-09-30T13:08:36.543Z,84.86
2017-09-30T13:09:46.819Z,85.44
2017-09-30T13:10:56.772Z,84.77
2017-09-30T13:12:06.723Z,84.86
2017-09-30T13:13:16.364Z,84.67
2017-09-30T13:14:25.995Z,85.3
2017-09-30T13:15:36.271Z,85.21
2017-09-30T13:16:46.222Z,85.39
2017-09-30T13:17:55.856Z,85.3
2017-09-30T13:19:05.814Z,85.44
2017-09-30T13:20:15.763Z,85.25
2017-09-30T13:21:25.717Z,85.25
2017-09-30T13:22:35.668Z,86.1
2017-09-30T13:23:45.621Z,85.82
2017-09-30T13:24:55.898Z,85.44
2017-09-30T13:26:05.855Z,85.63
2017-09-30T13:27:15.486Z,85.53
2017-09-30T13:28:25.113Z,85.25
2017-09-30T13:29:35.389Z,85.25
2017-09-30T13:30:45.662Z,85.34
2017-09-30T13:31:55.614Z,84.77
2017-09-30T13:33:05.888Z,83.81
2017-09-30T13:34:15.845Z,83.62
2017-09-30T13:35:25.797Z,84.29
2017-09-30T13:36:35.756Z,84.29
2017-09-30T13:37:45.704Z,84.86
2017-09-30T13:38:55.976Z,84.86
2017-09-30T13:40:06.253Z,84.67
2017-09-30T13:41:16.209Z,84.86
2017-09-30T13:42:26.483Z,84.39
2017-09-30T13:43:36.760Z,84.48
2017-09-30T13:44:47.025Z,84.1
2017-09-30T13:45:56.654Z,83.62
2017-09-30T13:47:06.932Z,84.33
2017-09-30T13:48:17.218Z,84.33
2017-09-30T13:49:27.168Z,84.43
2017-09-30T13:50:37.440Z,83.57
2017-09-30T13:51:49.718Z,84.43
2017-09-30T13:52:59.993Z,84.52
2017-09-30T13:54:09.954Z,84.62
2017-09-30T13:55:19.590Z,84.43
2017-09-30T13:56:29.869Z,83.86
2017-09-30T13:57:39.820Z,83.76
2017-09-30T13:58:49.451Z,83.76
2017-09-30T13:59:59.407Z,83.86
2017-09-30T14:01:09.683Z,83.86
2017-09-30T14:02:19.638Z,83.76
2017-09-30T14:03:29.591Z,83.47
2017-09-30T14:04:39.864Z,83.76
2017-09-30T14:05:49.821Z,82.9
2017-09-30T14:06:59.452Z,83.18
2017-09-30T14:08:09.405Z,83.47
2017-09-30T14:09:19.678Z,83.67
2017-09-30T14:10:29.951Z,84.05
2017-09-30T14:11:40.223Z,83.57
2017-09-30T14:12:50.504Z,83.95
2017-09-30T14:14:00.874Z,84.72
2017-09-30T14:15:10.922Z,84.05
2017-09-30T14:16:21.214Z,84.91
2017-09-30T14:17:31.165Z,84.81
2017-09-30T14:18:41.438Z,85
2017-09-30T14:19:51.726Z,84.62
2017-09-30T14:21:01.681Z,84.62
2017-09-30T14:22:11.963Z,84.81
2017-09-30T14:23:22.240Z,84.05
2017-09-30T14:24:32.510Z,84.81
2017-09-30T14:25:42.468Z,84.23
2017-09-30T14:26:52.426Z,84.52
2017-09-30T14:28:02.700Z,85
2017-09-30T14:29:12.333Z,85.1
2017-09-30T14:30:22.612Z,84.52
2017-09-30T14:31:32.574Z,84.62
2017-09-30T14:32:42.875Z,85.05
2017-09-30T14:33:52.513Z,84.48
2017-09-30T14:35:02.782Z,84.86
2017-09-30T14:36:13.058Z,84.58
2017-09-30T14:37:23.334Z,84.67
2017-09-30T14:38:32.968Z,84.96
2017-09-30T14:39:43.246Z,85.44
2017-09-30T14:40:53.525Z,85.34
2017-09-30T14:42:03.809Z,85.34
2017-09-30T14:43:13.764Z,85.53
2017-09-30T14:44:23.726Z,86.01
2017-09-30T14:45:33.999Z,86.01
2017-09-30T14:46:44.275Z,86.2
2017-09-30T14:47:54.545Z,86.68
2017-09-30T14:49:04.503Z,87.06
2017-09-30T14:50:14.132Z,86.77
2017-09-30T14:51:23.760Z,87.25
2017-09-30T14:52:33.718Z,88.01
2017-09-30T14:53:43.996Z,87.97
2017-09-30T14:54:54.271Z,88.35
2017-09-30T14:56:04.547Z,88.35
2017-09-30T14:57:13.859Z,88.73
2017-09-30T14:58:23.812Z,88.45
2017-09-30T14:59:33.441Z,88.54
2017-09-30T15:00:43.392Z,88.73
2017-09-30T15:01:53.660Z,88.26
2017-09-30T15:03:03.616Z,89.02
2017-09-30T15:04:12.924Z,89.02